EDDM

Munich International Airport

Munich, Germany
METAR EDDM 191950Z 09002KT CAVOK 19/14 Q1024 NOSIG
Observed Flight Rules
Jun-19 @ 19:50 UTC (31 minutes ago) Visual Flight Rules
Wind Visibility Clouds
90° at 2 knots 10,000+ meters
  • Clear skies
Temperatures Readings
Current 19°C / 66°F
Dewpoint 14°C / 57°F
Humidity 73%
Altimeter 30.24" Hg
Pressure 1024 hPa
Elevation 447
METAR EDDM 191950Z 09002KT CAVOK 19/14 Q1024 NOSIG
Observed Flight Rules
Jun-19 @ 19:50 UTC
(31 minutes ago)
VFR
Wind Visibility
90° at 2 knots 10,000+ meters
Clouds
  • Clear skies
Temperature Dewpoint
19°C / 66°F 14°C / 57°F
Humidity Altimeter Pressure
73% 30.24" Hg 1024 hPa